Time;durP1;ratioP1;P1;durP2;ratioP2;P2;SDS_P1;SDS_P2;PMS_P1;PMS_P2;Temp;Humidity;BMP_temperature;BMP_pressure;BME280_temperature;BME280_humidity;BME280_pressure;Samples;Min_cycle;Max_cycle;Signal;HPM_P1;HPM_P2
2023/04/03 00:00:23;;;;;;;;;;;;;;;;;;1036718;28;4189;-56
2023/04/03 00:01:14;;;;;;;;;;;;;;;;;;1039188;28;4091;-58
2023/04/03 00:01:44;;;;;;;;;;;;;;;;;;1037923;28;2232;-54
2023/04/03 00:02:15;;;;;;;;;;;;;;;;;;1034530;28;4186;-53
2023/04/03 00:02:45;;;;;;;;;;;;;;;;;;1038705;28;1730;-55
2023/04/03 00:03:16;;;;;;;;;;;;;;;;;;1038273;28;4120;-55
2023/04/03 00:03:46;;;;;;;;;;;;;;;;;;1038327;28;1814;-54
2023/04/03 00:04:17;;;;;;;;;;;;;;;;;;1036118;28;4250;-55
2023/04/03 00:04:47;;;;;;;;;;;;;;;;;;1038422;28;2255;-54
2023/04/03 00:05:17;;;;;;;;;;;;;;;;;;1037777;28;4022;-57
2023/04/03 00:05:48;;;;;;;;;;;;;;;;;;1039222;28;1675;-55
2023/04/03 00:06:18;;;;;;;;;;;;;;;;;;1038748;28;4181;-54
2023/04/03 00:06:48;;;;;;;;;;;;;;;;;;1036390;28;2559;-57
2023/04/03 00:07:18;;;;;;;;;;;;;;;;;;1037898;28;4132;-57
2023/04/03 00:07:49;;;;;;;;;;;;;;;;;;1038756;28;1883;-54
2023/04/03 00:08:20;;;;;;;;;;;;;;;;;;1038790;28;4056;-58
2023/04/03 00:08:51;;;;;;;;;;;;;;;;;;1038026;28;1854;-57
2023/04/03 00:09:21;;;;;;;;;;;;;;;;;;1039266;28;3846;-53
2023/04/03 00:09:51;;;;;;;;;;;;;;;;;;1038367;28;1935;-53
2023/04/03 00:10:22;;;;;;;;;;;;;;;;;;1036508;28;4095;-55
2023/04/03 00:10:52;;;;;;;;;;;;;;;;;;1036465;28;2706;-56
2023/04/03 00:11:23;;;;;;;;;;;;;;;;;;1039925;28;3897;-57
2023/04/03 00:11:53;;;;;;;;;;;;;;;;;;1043011;28;1748;-54
2023/04/03 00:12:23;;;;;;;;;;;;;;;;;;1040757;28;4067;-54
2023/04/03 00:12:54;;;;;;;;;;;;;;;;;;1043374;28;2007;-54
2023/04/03 00:13:24;;;;;;;;;;;;;;;;;;1037246;28;3942;-55
2023/04/03 00:13:55;;;;;;;;;;;;;;;;;;1037895;28;1817;-52
2023/04/03 00:14:25;;;;;;;;;;;;;;;;;;1035867;28;3863;-53
2023/04/03 00:14:56;;;;;;;;;;;;;;;;;;1039008;28;1665;-57
2023/04/03 00:15:26;;;;;;;;;;;;;;;;;;1036204;28;4068;-55
2023/04/03 00:15:56;;;;;;;;;;;;;;;;;;1039119;28;1638;-55
2023/04/03 00:16:27;;;;;;;;;;;;;;;;;;1037414;28;3866;-56
2023/04/03 00:16:57;;;;;;;;;;;;;;;;;;1037995;28;2890;-52
2023/04/03 00:17:27;;;;;;;;;;;;;;;;;;1037440;28;4107;-56
2023/04/03 00:17:57;;;;;;;;;;;;;;;;;;1038972;28;2648;-57
2023/04/03 00:18:28;;;;;;;;;;;;;;;;;;1037414;28;4133;-56
2023/04/03 00:18:58;;;;;;;;;;;;;;;;;;1037043;28;2002;-55
2023/04/03 00:19:28;;;;;;;;;;;;;;;;;;1039325;28;4037;-57
2023/04/03 00:19:59;;;;;;;;;;;;;;;;;;1039223;28;2794;-54
2023/04/03 00:20:29;;;;;;;;;;;;;;;;;;1036454;28;4110;-54
2023/04/03 00:21:00;;;;;;;;;;;;;;;;;;1036149;28;3067;-54
2023/04/03 00:21:30;;;;;;;;;;;;;;;;;;1038507;28;4010;-53
2023/04/03 00:22:00;;;;;;;;;;;;;;;;;;1037799;28;1890;-56
2023/04/03 00:22:31;;;;;;;;;;;;;;;;;;1038222;28;4007;-55
2023/04/03 00:23:01;;;;;;;;;;;;;;;;;;1039308;28;1725;-50
2023/04/03 00:23:33;;;;;;;;;;;;;;;;;;1036120;28;3892;-55
2023/04/03 00:24:03;;;;;;;;;;;;;;;;;;1037954;28;2352;-53
2023/04/03 00:24:34;;;;;;;;;;;;;;;;;;1038139;28;4052;-55
2023/04/03 00:25:04;;;;;;;;;;;;;;;;;;1039515;28;1735;-56
2023/04/03 00:25:34;;;;;;;;;;;;;;;;;;1034215;28;4019;-53
2023/04/03 00:26:05;;;;;;;;;;;;;;;;;;1039451;28;1725;-53
2023/04/03 00:26:35;;;;;;;;;;;;;;;;;;1037283;28;4032;-56
2023/04/03 00:27:05;;;;;;;;;;;;;;;;;;1038369;28;2841;-55
2023/04/03 00:27:37;;;;;;;;;;;;;;;;;;1038377;28;3881;-55
2023/04/03 00:28:07;;;;;;;;;;;;;;;;;;1036845;28;3356;-56
2023/04/03 00:28:37;;;;;;;;;;;;;;;;;;1037667;28;3840;-56
2023/04/03 00:29:07;;;;;;;;;;;;;;;;;;1039817;28;1565;-57
2023/04/03 00:29:38;;;;;;;;;;;;;;;;;;1038528;28;3929;-56
2023/04/03 00:30:09;;;;;;;;;;;;;;;;;;1037539;28;2653;-56
2023/04/03 00:30:40;;;;;;;;;;;;;;;;;;1037695;28;4072;-55
2023/04/03 00:31:10;;;;;;;;;;;;;;;;;;1037909;28;3349;-57
2023/04/03 00:31:40;;;;;;;;;;;;;;;;;;1039395;28;3754;-55
2023/04/03 00:32:10;;;;;;;;;;;;;;;;;;1038069;28;1629;-55
2023/04/03 00:32:41;;;;;;;;;;;;;;;;;;1038533;28;3789;-56
2023/04/03 00:33:12;;;;;;;;;;;;;;;;;;1039099;28;3960;-54
2023/04/03 00:33:43;;;;;;;;;;;;;;;;;;1038874;28;2241;-55
2023/04/03 00:34:13;;;;;;;;;;;;;;;;;;1039039;28;4036;-55
2023/04/03 00:34:43;;;;;;;;;;;;;;;;;;1040293;28;1704;-55
2023/04/03 00:35:15;;;;;;;;;;;;;;;;;;1038977;28;3903;-52
2023/04/03 00:35:45;;;;;;;;;;;;;;;;;;1038800;28;2324;-54
2023/04/03 00:36:16;;;;;;;;;;;;;;;;;;1037346;28;3867;-55
2023/04/03 00:36:46;;;;;;;;;;;;;;;;;;1037669;28;2490;-56
2023/04/03 00:37:16;;;;;;;;;;;;;;;;;;1040920;28;3851;-55
2023/04/03 00:37:47;;;;;;;;;;;;;;;;;;1038279;28;1879;-56
2023/04/03 00:38:17;;;;;;;;;;;;;;;;;;1037624;28;4109;-55
2023/04/03 00:38:48;;;;;;;;;;;;;;;;;;1037459;28;2595;-57
2023/04/03 00:39:18;;;;;;;;;;;;;;;;;;1038468;28;4396;-54
2023/04/03 00:39:48;;;;;;;;;;;;;;;;;;1032709;28;2806;-57
2023/04/03 00:40:19;;;;;;;;;;;;;;;;;;1035145;28;4059;-53
2023/04/03 00:40:49;;;;;;;;;;;;;;;;;;1032581;28;2834;-54
2023/04/03 00:41:21;;;;;;;;;;;;;;;;;;1034416;28;3816;-56
2023/04/03 00:41:51;;;;;;;;;;;;;;;;;;1035100;28;1530;-56
2023/04/03 00:42:21;;;;;;;;;;;;;;;;;;1035034;28;3895;-54
2023/04/03 00:42:55;;;;;;;;;;;;;;;;;;1032714;28;2837;-54
2023/04/03 00:43:27;;;;;;;;;;;;;;;;;;1032398;28;4363;-56
2023/04/03 00:43:57;;;;;;;;;;;;;;;;;;1034736;28;2793;-56
2023/04/03 00:44:27;;;;;;;;;;;;;;;;;;1035217;28;4045;-55
2023/04/03 00:44:57;;;;;;;;;;;;;;;;;;1033615;28;1826;-57
2023/04/03 00:45:33;;;;;;;;;;;;;;;;;;1034477;28;3929;-55
2023/04/03 00:46:03;;;;;;;;;;;;;;;;;;1035581;28;2876;-55
2023/04/03 00:46:33;;;;;;;;;;;;;;;;;;1033977;28;4109;-55
2023/04/03 00:47:05;;;;;;;;;;;;;;;;;;1033941;28;2878;-55
2023/04/03 00:47:36;;;;;;;;;;;;;;;;;;1033312;28;3881;-55
2023/04/03 00:48:08;;;;;;;;;;;;;;;;;;1035977;28;1673;-54
2023/04/03 00:48:40;;;;;;;;;;;;;;;;;;1034957;28;3951;-55
2023/04/03 00:49:10;;;;;;;;;;;;;;;;;;1034571;28;2628;-56
2023/04/03 00:49:41;;;;;;;;;;;;;;;;;;1034629;28;4018;-55
2023/04/03 00:50:12;;;;;;;;;;;;;;;;;;1035873;28;3934;-55
2023/04/03 00:50:42;;;;;;;;;;;;;;;;;;1034992;28;2951;-53
2023/04/03 00:51:15;;;;;;;;;;;;;;;;;;1035444;28;3965;-56
2023/04/03 00:51:45;;;;;;;;;;;;;;;;;;1032061;28;2851;-57
2023/04/03 00:52:17;;;;;;;;;;;;;;;;;;1036404;28;4550;-55
2023/04/03 00:52:48;;;;;;;;;;;;;;;;;;1034680;28;1765;-53
2023/04/03 00:53:22;;;;;;;;;;;;;;;;;;1035340;28;4017;-53
2023/04/03 00:54:01;;;;;;;;;;;;;;;;;;1035323;28;2220;-54
2023/04/03 00:54:31;;;;;;;;;;;;;;;;;;1034888;28;3971;-54
2023/04/03 00:55:03;;;;;;;;;;;;;;;;;;1031681;28;2830;-54
2023/04/03 00:55:35;;;;;;;;;;;;;;;;;;1032086;28;4948;-55
2023/04/03 00:56:07;;;;;;;;;;;;;;;;;;1033387;28;2521;-52
2023/04/03 00:56:37;;;;;;;;;;;;;;;;;;1034453;28;4008;-56
2023/04/03 00:57:08;;;;;;;;;;;;;;;;;;1035913;28;2391;-57
2023/04/03 00:57:38;;;;;;;;;;;;;;;;;;1033191;28;4093;-57
2023/04/03 00:58:09;;;;;;;;;;;;;;;;;;1033782;28;1823;-57
2023/04/03 00:58:43;;;;;;;;;;;;;;;;;;1034176;28;3967;-56
2023/04/03 00:59:16;;;;;;;;;;;;;;;;;;1034307;28;3865;-58
2023/04/03 00:59:49;;;;;;;;;;;;;;;;;;1033859;28;2167;-53
2023/04/03 01:00:20;;;;;;;;;;;;;;;;;;1033622;28;3784;-55
2023/04/03 01:00:56;;;;;;;;;;;;;;;;;;1033134;28;2752;-54
2023/04/03 01:01:27;;;;;;;;;;;;;;;;;;1033115;28;4191;-54
2023/04/03 01:01:58;;;;;;;;;;;;;;;;;;1033158;28;2789;-56
2023/04/03 01:02:29;;;;;;;;;;;;;;;;;;1033094;28;3769;-55
2023/04/03 01:02:59;;;;;;;;;;;;;;;;;;1034892;28;2025;-56
2023/04/03 01:03:31;;;;;;;;;;;;;;;;;;1034223;28;3908;-58
2023/04/03 01:04:02;;;;;;;;;;;;;;;;;;1034138;28;2074;-55
2023/04/03 01:04:36;;;;;;;;;;;;;;;;;;1033849;28;3941;-54
2023/04/03 01:05:06;;;;;;;;;;;;;;;;;;1033128;28;2107;-55
2023/04/03 01:05:37;;;;;;;;;;;;;;;;;;1032741;28;3850;-54
2023/04/03 01:06:07;;;;;;;;;;;;;;;;;;1034118;28;2669;-54
2023/04/03 01:06:38;;;;;;;;;;;;;;;;;;1031526;28;3788;-55
2023/04/03 01:07:08;;;;;;;;;;;;;;;;;;1036140;28;2984;-57
2023/04/03 01:07:39;;;;;;;;;;;;;;;;;;1033019;28;3931;-54
2023/04/03 01:08:10;;;;;;;;;;;;;;;;;;1034431;28;2755;-56
2023/04/03 01:08:40;;;;;;;;;;;;;;;;;;1033779;28;3885;-56
2023/04/03 01:09:11;;;;;;;;;;;;;;;;;;1034448;28;2820;-55
2023/04/03 01:09:41;;;;;;;;;;;;;;;;;;1034961;28;3756;-54
2023/04/03 01:10:14;;;;;;;;;;;;;;;;;;1033694;28;4078;-55
2023/04/03 01:10:44;;;;;;;;;;;;;;;;;;1034107;28;2735;-56
2023/04/03 01:11:15;;;;;;;;;;;;;;;;;;1034376;28;3859;-56
2023/04/03 01:11:45;;;;;;;;;;;;;;;;;;1035100;28;2765;-57
2023/04/03 01:12:20;;;;;;;;;;;;;;;;;;1033141;28;4025;-56
2023/04/03 01:12:51;;;;;;;;;;;;;;;;;;1034218;28;2842;-57
2023/04/03 01:13:24;;;;;;;;;;;;;;;;;;1032995;28;3847;-55
2023/04/03 01:13:54;;;;;;;;;;;;;;;;;;1036069;28;1717;-53
2023/04/03 01:14:24;;;;;;;;;;;;;;;;;;1033200;28;3779;-52
2023/04/03 01:14:58;;;;;;;;;;;;;;;;;;1033478;28;2806;-58
2023/04/03 01:15:34;;;;;;;;;;;;;;;;;;1032125;28;4129;-57
2023/04/03 01:16:05;;;;;;;;;;;;;;;;;;1036032;28;2482;-55
2023/04/03 01:16:36;;;;;;;;;;;;;;;;;;1033660;28;3952;-55
2023/04/03 01:17:25;;;;;;;;;;;;;;;;;;1035260;28;2785;-54
2023/04/03 01:17:57;;;;;;;;;;;;;;;;;;1033592;28;3927;-56
2023/04/03 01:18:27;;;;;;;;;;;;;;;;;;1032637;28;3877;-56
2023/04/03 01:18:58;;;;;;;;;;;;;;;;;;1033470;28;2234;-54
2023/04/03 01:19:29;;;;;;;;;;;;;;;;;;1030811;28;4021;-53
2023/04/03 01:20:14;;;;;;;;;;;;;;;;;;1034276;28;2328;-54
2023/04/03 01:20:47;;;;;;;;;;;;;;;;;;1033682;28;3814;-53
2023/04/03 01:21:18;;;;;;;;;;;;;;;;;;1032625;28;3867;-53
2023/04/03 01:22:26;;;;;;;;;;;;;;;;;;1035873;28;1718;-54
2023/04/03 01:23:06;;;;;;;;;;;;;;;;;;1041006;28;3823;-55
2023/04/03 01:23:43;;;;;;;;;;;;;;;;;;1041638;28;4017;-56
2023/04/03 01:24:29;;;;;;;;;;;;;;;;;;1042523;28;4031;-55
2023/04/03 01:24:59;;;;;;;;;;;;;;;;;;1043452;28;1782;-57
2023/04/03 01:25:29;;;;;;;;;;;;;;;;;;1041623;28;4110;-55
2023/04/03 01:26:00;;;;;;;;;;;;;;;;;;1043119;28;3047;-56
2023/04/03 01:26:30;;;;;;;;;;;;;;;;;;1041697;28;4004;-51
2023/04/03 01:27:02;;;;;;;;;;;;;;;;;;1042226;28;2269;-55
2023/04/03 01:27:32;;;;;;;;;;;;;;;;;;1042094;28;3864;-54
2023/04/03 01:28:03;;;;;;;;;;;;;;;;;;1043616;28;1718;-55
2023/04/03 01:28:34;;;;;;;;;;;;;;;;;;1042395;28;3758;-54
2023/04/03 01:29:05;;;;;;;;;;;;;;;;;;1035170;28;1710;-56
2023/04/03 01:29:36;;;;;;;;;;;;;;;;;;1035345;28;3928;-54
2023/04/03 01:30:07;;;;;;;;;;;;;;;;;;1032729;28;2716;-55
2023/04/03 01:30:44;;;;;;;;;;;;;;;;;;1036233;28;3976;-56
2023/04/03 01:31:31;;;;;;;;;;;;;;;;;;1038387;28;3918;-54
2023/04/03 01:32:02;;;;;;;;;;;;;;;;;;1032670;28;2815;-55
2023/04/03 01:32:32;;;;;;;;;;;;;;;;;;1038861;28;3956;-52
2023/04/03 01:33:03;;;;;;;;;;;;;;;;;;1038269;28;2282;-53
2023/04/03 01:33:33;;;;;;;;;;;;;;;;;;1038530;28;4085;-56
2023/04/03 01:34:03;;;;;;;;;;;;;;;;;;1039475;28;1607;-57
2023/04/03 01:34:34;;;;;;;;;;;;;;;;;;1037296;28;4078;-55
2023/04/03 01:35:07;;;;;;;;;;;;;;;;;;1038024;28;1907;-55
2023/04/03 01:35:37;;;;;;;;;;;;;;;;;;1038447;28;3996;-52
2023/04/03 01:36:09;;;;;;;;;;;;;;;;;;1038394;28;1703;-55
2023/04/03 01:36:40;;;;;;;;;;;;;;;;;;1037282;28;4207;-55
2023/04/03 01:37:11;;;;;;;;;;;;;;;;;;1038631;28;2812;-54
2023/04/03 01:37:41;;;;;;;;;;;;;;;;;;1039206;28;3890;-55
2023/04/03 01:38:11;;;;;;;;;;;;;;;;;;1037036;28;3860;-51
2023/04/03 01:38:41;;;;;;;;;;;;;;;;;;1040239;28;1839;-54
2023/04/03 01:39:12;;;;;;;;;;;;;;;;;;1036940;28;4040;-54
2023/04/03 01:39:42;;;;;;;;;;;;;;;;;;1040648;28;1899;-55
2023/04/03 01:40:13;;;;;;;;;;;;;;;;;;1038601;28;3875;-54
2023/04/03 01:40:43;;;;;;;;;;;;;;;;;;1038363;28;2589;-54
2023/04/03 01:41:13;;;;;;;;;;;;;;;;;;1038625;28;3940;-55
2023/04/03 01:41:44;;;;;;;;;;;;;;;;;;1039226;28;1649;-55
2023/04/03 01:42:15;;;;;;;;;;;;;;;;;;1039499;28;4052;-54
2023/04/03 01:42:46;;;;;;;;;;;;;;;;;;1039168;28;1690;-57
2023/04/03 01:43:16;;;;;;;;;;;;;;;;;;1037258;28;4023;-55
2023/04/03 01:43:47;;;;;;;;;;;;;;;;;;1038618;28;1858;-53
2023/04/03 01:44:17;;;;;;;;;;;;;;;;;;1038786;28;4011;-56
2023/04/03 01:44:48;;;;;;;;;;;;;;;;;;1035552;28;2658;-54
2023/04/03 01:45:18;;;;;;;;;;;;;;;;;;1037097;28;3795;-54
2023/04/03 01:45:49;;;;;;;;;;;;;;;;;;1038456;28;2310;-53
2023/04/03 01:46:21;;;;;;;;;;;;;;;;;;1037812;28;3872;-56
2023/04/03 01:46:51;;;;;;;;;;;;;;;;;;1036938;28;1886;-56
2023/04/03 01:47:21;;;;;;;;;;;;;;;;;;1036279;28;4019;-53
2023/04/03 01:47:51;;;;;;;;;;;;;;;;;;1039145;28;1700;-57
2023/04/03 01:48:22;;;;;;;;;;;;;;;;;;1038397;28;4030;-57
2023/04/03 01:48:52;;;;;;;;;;;;;;;;;;1038626;28;2937;-52
2023/04/03 01:49:22;;;;;;;;;;;;;;;;;;1037014;28;3950;-55
2023/04/03 01:49:53;;;;;;;;;;;;;;;;;;1039633;28;1421;-56
2023/04/03 01:50:23;;;;;;;;;;;;;;;;;;1036648;28;4195;-55
2023/04/03 01:50:53;;;;;;;;;;;;;;;;;;1040208;28;1779;-57
2023/04/03 01:51:23;;;;;;;;;;;;;;;;;;1038403;28;3846;-54
2023/04/03 01:51:54;;;;;;;;;;;;;;;;;;1040037;28;1632;-56
2023/04/03 01:52:24;;;;;;;;;;;;;;;;;;1036872;28;4184;-54
2023/04/03 01:52:55;;;;;;;;;;;;;;;;;;1039562;28;3207;-53
2023/04/03 01:53:25;;;;;;;;;;;;;;;;;;1038282;28;4366;-54
2023/04/03 01:53:55;;;;;;;;;;;;;;;;;;1038872;28;1915;-57
2023/04/03 01:54:26;;;;;;;;;;;;;;;;;;1039211;28;4393;-57
2023/04/03 01:54:56;;;;;;;;;;;;;;;;;;1037333;28;1987;-55
2023/04/03 01:55:26;;;;;;;;;;;;;;;;;;1038396;28;4260;-54
2023/04/03 01:55:56;;;;;;;;;;;;;;;;;;1038424;28;2614;-56
2023/04/03 01:56:27;;;;;;;;;;;;;;;;;;1037392;28;4054;-55
2023/04/03 01:56:57;;;;;;;;;;;;;;;;;;1037909;28;2314;-55
2023/04/03 01:57:27;;;;;;;;;;;;;;;;;;1038469;28;3912;-54
2023/04/03 01:57:57;;;;;;;;;;;;;;;;;;1038544;28;2037;-55
2023/04/03 01:58:28;;;;;;;;;;;;;;;;;;1038335;28;4061;-52
2023/04/03 01:58:58;;;;;;;;;;;;;;;;;;1038087;28;1679;-54
2023/04/03 01:59:28;;;;;;;;;;;;;;;;;;1039525;28;4038;-57
2023/04/03 01:59:59;;;;;;;;;;;;;;;;;;1037866;28;1991;-55
2023/04/03 02:00:29;;;;;;;;;;;;;;;;;;1034886;28;4046;-55
2023/04/03 02:01:00;;;;;;;;;;;;;;;;;;1039273;28;2618;-57
2023/04/03 02:01:30;;;;;;;;;;;;;;;;;;1036711;28;4020;-56
2023/04/03 02:02:00;;;;;;;;;;;;;;;;;;1038744;28;2904;-57
2023/04/03 02:02:31;;;;;;;;;;;;;;;;;;1039344;28;4181;-57
2023/04/03 02:03:01;;;;;;;;;;;;;;;;;;1039301;28;1700;-55
2023/04/03 02:03:32;;;;;;;;;;;;;;;;;;1037642;28;3816;-55
2023/04/03 02:04:02;;;;;;;;;;;;;;;;;;1040006;28;1418;-55
2023/04/03 02:04:32;;;;;;;;;;;;;;;;;;1036747;28;4061;-57
2023/04/03 02:05:03;;;;;;;;;;;;;;;;;;1039073;28;1622;-55
2023/04/03 02:05:33;;;;;;;;;;;;;;;;;;1038146;28;4052;-55
2023/04/03 02:06:04;;;;;;;;;;;;;;;;;;1039129;28;1691;-55
2023/04/03 02:06:34;;;;;;;;;;;;;;;;;;1037538;28;3970;-58
2023/04/03 02:07:05;;;;;;;;;;;;;;;;;;1037541;28;2293;-53
2023/04/03 02:07:35;;;;;;;;;;;;;;;;;;1038400;28;3853;-56
2023/04/03 02:08:05;;;;;;;;;;;;;;;;;;1037395;28;2852;-54
2023/04/03 02:08:36;;;;;;;;;;;;;;;;;;1039055;28;4063;-55
2023/04/03 02:09:06;;;;;;;;;;;;;;;;;;1039226;28;1820;-56
2023/04/03 02:09:37;;;;;;;;;;;;;;;;;;1038699;28;3946;-54
2023/04/03 02:10:07;;;;;;;;;;;;;;;;;;1037836;28;2935;-53
2023/04/03 02:10:37;;;;;;;;;;;;;;;;;;1038670;28;3950;-54
2023/04/03 02:11:08;;;;;;;;;;;;;;;;;;1038724;28;2842;-55
2023/04/03 02:11:38;;;;;;;;;;;;;;;;;;1037868;28;4148;-52
2023/04/03 02:12:08;;;;;;;;;;;;;;;;;;1038008;28;2761;-56
2023/04/03 02:12:38;;;;;;;;;;;;;;;;;;1036556;28;4100;-55
2023/04/03 02:13:09;;;;;;;;;;;;;;;;;;1037086;28;2742;-53
2023/04/03 02:13:39;;;;;;;;;;;;;;;;;;1036231;28;3815;-56
2023/04/03 02:14:10;;;;;;;;;;;;;;;;;;1038922;28;1675;-54
2023/04/03 02:14:40;;;;;;;;;;;;;;;;;;1038928;28;3814;-58
2023/04/03 02:15:10;;;;;;;;;;;;;;;;;;1035491;28;2866;-52
2023/04/03 02:15:41;;;;;;;;;;;;;;;;;;1038391;28;3899;-54
2023/04/03 02:16:12;;;;;;;;;;;;;;;;;;1038696;28;4024;-51
2023/04/03 02:16:42;;;;;;;;;;;;;;;;;;1036515;28;2480;-54
2023/04/03 02:17:13;;;;;;;;;;;;;;;;;;1037845;28;4079;-53
2023/04/03 02:17:43;;;;;;;;;;;;;;;;;;1038623;28;1763;-55
2023/04/03 02:18:14;;;;;;;;;;;;;;;;;;1038927;28;4049;-56
2023/04/03 02:18:44;;;;;;;;;;;;;;;;;;1038288;28;2231;-51
2023/04/03 02:19:15;;;;;;;;;;;;;;;;;;1036421;28;4047;-54
2023/04/03 02:19:45;;;;;;;;;;;;;;;;;;1037141;28;2368;-55
2023/04/03 02:20:15;;;;;;;;;;;;;;;;;;1039042;28;4068;-56
2023/04/03 02:20:46;;;;;;;;;;;;;;;;;;1038870;28;1682;-51
2023/04/03 02:21:16;;;;;;;;;;;;;;;;;;1039497;28;3951;-55
2023/04/03 02:21:46;;;;;;;;;;;;;;;;;;1036731;28;2778;-55
2023/04/03 02:22:17;;;;;;;;;;;;;;;;;;1034435;28;4193;-53
2023/04/03 02:22:48;;;;;;;;;;;;;;;;;;1039343;28;2650;-57
2023/04/03 02:23:18;;;;;;;;;;;;;;;;;;1037176;28;4033;-56
2023/04/03 02:23:48;;;;;;;;;;;;;;;;;;1037587;28;2797;-57
2023/04/03 02:24:19;;;;;;;;;;;;;;;;;;1038104;28;4101;-54
2023/04/03 02:24:49;;;;;;;;;;;;;;;;;;1039499;28;1847;-56
2023/04/03 02:25:20;;;;;;;;;;;;;;;;;;1037266;28;4018;-56
2023/04/03 02:25:50;;;;;;;;;;;;;;;;;;1039170;28;2632;-55
2023/04/03 02:26:20;;;;;;;;;;;;;;;;;;1038770;28;3950;-54
2023/04/03 02:26:51;;;;;;;;;;;;;;;;;;1039016;28;2017;-54
2023/04/03 02:27:21;;;;;;;;;;;;;;;;;;1036441;28;3972;-56
2023/04/03 02:27:51;;;;;;;;;;;;;;;;;;1038236;28;1392;-54
2023/04/03 02:28:22;;;;;;;;;;;;;;;;;;1037758;28;4027;-55
2023/04/03 02:28:52;;;;;;;;;;;;;;;;;;1039749;28;1602;-55
2023/04/03 02:29:23;;;;;;;;;;;;;;;;;;1036878;28;3923;-57
2023/04/03 02:29:53;;;;;;;;;;;;;;;;;;1037512;28;2680;-53
2023/04/03 02:30:23;;;;;;;;;;;;;;;;;;1037572;28;3951;-55
2023/04/03 02:30:54;;;;;;;;;;;;;;;;;;1037347;28;2594;-56
2023/04/03 02:31:24;;;;;;;;;;;;;;;;;;1038453;28;4038;-54
2023/04/03 02:31:54;;;;;;;;;;;;;;;;;;1036070;28;2732;-56
2023/04/03 02:32:25;;;;;;;;;;;;;;;;;;1036983;28;4032;-54
2023/04/03 02:32:55;;;;;;;;;;;;;;;;;;1037508;28;2432;-53
2023/04/03 02:33:25;;;;;;;;;;;;;;;;;;1038647;28;4033;-53
2023/04/03 02:33:56;;;;;;;;;;;;;;;;;;1037881;28;2272;-54
2023/04/03 02:34:26;;;;;;;;;;;;;;;;;;1038676;28;4032;-52
2023/04/03 02:34:56;;;;;;;;;;;;;;;;;;1037103;28;2834;-54
2023/04/03 02:35:27;;;;;;;;;;;;;;;;;;1038242;28;4191;-53
2023/04/03 02:35:57;;;;;;;;;;;;;;;;;;1036578;28;1832;-54
2023/04/03 02:36:27;;;;;;;;;;;;;;;;;;1039546;28;4053;-55
2023/04/03 02:36:58;;;;;;;;;;;;;;;;;;1036923;28;1838;-54
2023/04/03 02:37:28;;;;;;;;;;;;;;;;;;1037034;28;4015;-55
2023/04/03 02:37:58;;;;;;;;;;;;;;;;;;1040300;28;1719;-55
2023/04/03 02:38:29;;;;;;;;;;;;;;;;;;1035436;28;3873;-56
2023/04/03 02:38:59;;;;;;;;;;;;;;;;;;1038479;28;2224;-54
2023/04/03 02:39:29;;;;;;;;;;;;;;;;;;1038143;28;3854;-52
2023/04/03 02:40:00;;;;;;;;;;;;;;;;;;1038443;28;2807;-55
2023/04/03 02:40:30;;;;;;;;;;;;;;;;;;1037077;28;3780;-55
2023/04/03 02:41:01;;;;;;;;;;;;;;;;;;1037414;28;2942;-52
2023/04/03 02:41:37;;;;;;;;;;;;;;;;;;1038959;28;3987;-55
2023/04/03 02:42:07;;;;;;;;;;;;;;;;;;1039580;28;1752;-53
2023/04/03 02:42:37;;;;;;;;;;;;;;;;;;1037758;28;3832;-55
2023/04/03 02:43:08;;;;;;;;;;;;;;;;;;1039132;28;1787;-54
2023/04/03 02:43:38;;;;;;;;;;;;;;;;;;1038051;28;3972;-53
2023/04/03 02:44:09;;;;;;;;;;;;;;;;;;1037948;28;1824;-56
2023/04/03 02:44:40;;;;;;;;;;;;;;;;;;1039080;28;3791;-56
2023/04/03 02:45:10;;;;;;;;;;;;;;;;;;1037252;28;2865;-55
2023/04/03 02:45:40;;;;;;;;;;;;;;;;;;1037366;28;3979;-58
2023/04/03 02:46:11;;;;;;;;;;;;;;;;;;1038489;28;2731;-54
2023/04/03 02:46:41;;;;;;;;;;;;;;;;;;1039552;28;3742;-58
2023/04/03 02:47:11;;;;;;;;;;;;;;;;;;1037351;28;4386;-52
2023/04/03 02:47:41;;;;;;;;;;;;;;;;;;1037991;28;1986;-55
2023/04/03 02:48:12;;;;;;;;;;;;;;;;;;1038367;28;3876;-54
2023/04/03 02:48:42;;;;;;;;;;;;;;;;;;1038410;28;1638;-53
2023/04/03 02:49:12;;;;;;;;;;;;;;;;;;1037777;28;4178;-57
2023/04/03 02:49:45;;;;;;;;;;;;;;;;;;1038443;28;2830;-55
2023/04/03 02:50:16;;;;;;;;;;;;;;;;;;1037355;28;3974;-52
2023/04/03 02:50:46;;;;;;;;;;;;;;;;;;1038723;28;2110;-50
2023/04/03 02:51:16;;;;;;;;;;;;;;;;;;1037915;28;3993;-55
2023/04/03 02:51:47;;;;;;;;;;;;;;;;;;1039896;28;1735;-57
2023/04/03 02:52:17;;;;;;;;;;;;;;;;;;1037444;28;3968;-55
2023/04/03 02:52:47;;;;;;;;;;;;;;;;;;1036335;28;2712;-53
2023/04/03 02:53:18;;;;;;;;;;;;;;;;;;1037528;28;4362;-51
2023/04/03 02:53:49;;;;;;;;;;;;;;;;;;1038181;28;2594;-54
2023/04/03 02:54:19;;;;;;;;;;;;;;;;;;1036913;28;4070;-54
2023/04/03 02:54:49;;;;;;;;;;;;;;;;;;1037902;28;2188;-54
2023/04/03 02:55:20;;;;;;;;;;;;;;;;;;1037869;28;4048;-54
2023/04/03 02:55:50;;;;;;;;;;;;;;;;;;1038497;28;1901;-55
2023/04/03 02:56:21;;;;;;;;;;;;;;;;;;1037319;28;4282;-56
2023/04/03 02:56:51;;;;;;;;;;;;;;;;;;1037508;28;2558;-57
2023/04/03 02:57:21;;;;;;;;;;;;;;;;;;1037682;28;4057;-56
2023/04/03 02:57:51;;;;;;;;;;;;;;;;;;1038712;28;1782;-55
2023/04/03 02:58:22;;;;;;;;;;;;;;;;;;1036811;28;4034;-55
2023/04/03 02:58:52;;;;;;;;;;;;;;;;;;1039359;28;1829;-58
2023/04/03 02:59:22;;;;;;;;;;;;;;;;;;1038875;28;3896;-55
2023/04/03 02:59:53;;;;;;;;;;;;;;;;;;1038308;28;2806;-52
2023/04/03 03:00:23;;;;;;;;;;;;;;;;;;1034615;28;3884;-54
2023/04/03 03:00:54;;;;;;;;;;;;;;;;;;1039440;28;1647;-55
2023/04/03 03:01:24;;;;;;;;;;;;;;;;;;1037905;28;3884;-57
2023/04/03 03:01:55;;;;;;;;;;;;;;;;;;1039056;28;1613;-55
2023/04/03 03:02:25;;;;;;;;;;;;;;;;;;1037042;28;4131;-55
2023/04/03 03:02:56;;;;;;;;;;;;;;;;;;1038248;28;3043;-54
2023/04/03 03:03:26;;;;;;;;;;;;;;;;;;1037389;28;4141;-56
2023/04/03 03:03:57;;;;;;;;;;;;;;;;;;1039371;28;1644;-56
2023/04/03 03:04:27;;;;;;;;;;;;;;;;;;1035839;28;4139;-54
2023/04/03 03:04:57;;;;;;;;;;;;;;;;;;1037882;28;2219;-56
2023/04/03 03:05:28;;;;;;;;;;;;;;;;;;1038008;28;4029;-56
2023/04/03 03:06:03;;;;;;;;;;;;;;;;;;1039675;28;1717;-56
2023/04/03 03:06:33;;;;;;;;;;;;;;;;;;1037933;28;4042;-57
2023/04/03 03:07:03;;;;;;;;;;;;;;;;;;1038443;28;2263;-51
2023/04/03 03:07:34;;;;;;;;;;;;;;;;;;1038118;28;4235;-53
2023/04/03 03:08:04;;;;;;;;;;;;;;;;;;1037501;28;2837;-57
2023/04/03 03:08:34;;;;;;;;;;;;;;;;;;1040029;28;4032;-57
2023/04/03 03:09:05;;;;;;;;;;;;;;;;;;1038880;28;1856;-56
2023/04/03 03:09:36;;;;;;;;;;;;;;;;;;1038218;28;4034;-55
2023/04/03 03:10:06;;;;;;;;;;;;;;;;;;1039019;28;1895;-55
2023/04/03 03:10:36;;;;;;;;;;;;;;;;;;1039147;28;3859;-57
2023/04/03 03:11:07;;;;;;;;;;;;;;;;;;1037562;28;2502;-54
2023/04/03 03:11:37;;;;;;;;;;;;;;;;;;1039066;28;4071;-56
2023/04/03 03:12:08;;;;;;;;;;;;;;;;;;1038832;28;1670;-55
2023/04/03 03:12:38;;;;;;;;;;;;;;;;;;1037636;28;4131;-55
2023/04/03 03:13:08;;;;;;;;;;;;;;;;;;1037617;28;2530;-56
2023/04/03 03:13:38;;;;;;;;;;;;;;;;;;1038883;28;4096;-56
2023/04/03 03:14:09;;;;;;;;;;;;;;;;;;1038175;28;2008;-57
2023/04/03 03:14:40;;;;;;;;;;;;;;;;;;1039274;28;4169;-54
2023/04/03 03:15:10;;;;;;;;;;;;;;;;;;1037227;28;2894;-53
2023/04/03 03:15:41;;;;;;;;;;;;;;;;;;1039127;28;3991;-56
2023/04/03 03:16:11;;;;;;;;;;;;;;;;;;1037907;28;2678;-56
2023/04/03 03:16:41;;;;;;;;;;;;;;;;;;1039429;28;4126;-53
2023/04/03 03:17:11;;;;;;;;;;;;;;;;;;1038611;28;3799;-55
2023/04/03 03:17:42;;;;;;;;;;;;;;;;;;1038584;28;1778;-53
2023/04/03 03:18:12;;;;;;;;;;;;;;;;;;1037109;28;4139;-53
2023/04/03 03:18:42;;;;;;;;;;;;;;;;;;1039077;28;1808;-54
2023/04/03 03:19:13;;;;;;;;;;;;;;;;;;1037883;28;4073;-56
2023/04/03 03:19:43;;;;;;;;;;;;;;;;;;1038777;28;1425;-54
2023/04/03 03:20:15;;;;;;;;;;;;;;;;;;1039210;28;4089;-56
2023/04/03 03:20:45;;;;;;;;;;;;;;;;;;1038099;28;1744;-55
2023/04/03 03:21:15;;;;;;;;;;;;;;;;;;1038376;28;4036;-53
2023/04/03 03:21:46;;;;;;;;;;;;;;;;;;1038873;28;1862;-53
2023/04/03 03:22:16;;;;;;;;;;;;;;;;;;1039178;28;4237;-56
2023/04/03 03:22:46;;;;;;;;;;;;;;;;;;1037982;28;2778;-56
2023/04/03 03:23:17;;;;;;;;;;;;;;;;;;1037479;28;3898;-54
2023/04/03 03:23:47;;;;;;;;;;;;;;;;;;1039191;28;1673;-56
2023/04/03 03:24:17;;;;;;;;;;;;;;;;;;1036772;28;4061;-56
2023/04/03 03:24:47;;;;;;;;;;;;;;;;;;1039580;28;1664;-54
2023/04/03 03:25:18;;;;;;;;;;;;;;;;;;1038081;28;4037;-54
2023/04/03 03:25:48;;;;;;;;;;;;;;;;;;1038984;28;1910;-55
2023/04/03 03:26:19;;;;;;;;;;;;;;;;;;1038106;28;3892;-54
2023/04/03 03:26:49;;;;;;;;;;;;;;;;;;1039623;28;1652;-56
2023/04/03 03:27:20;;;;;;;;;;;;;;;;;;1037814;28;4038;-57
2023/04/03 03:27:50;;;;;;;;;;;;;;;;;;1038365;28;3161;-56
2023/04/03 03:28:20;;;;;;;;;;;;;;;;;;1037450;28;4042;-55
2023/04/03 03:28:50;;;;;;;;;;;;;;;;;;1039953;28;2706;-53
2023/04/03 03:29:21;;;;;;;;;;;;;;;;;;1038397;28;3875;-55
2023/04/03 03:29:51;;;;;;;;;;;;;;;;;;1039423;28;1127;-54
2023/04/03 03:30:21;;;;;;;;;;;;;;;;;;1037439;28;4036;-55
2023/04/03 03:30:52;;;;;;;;;;;;;;;;;;1040373;28;1853;-56
2023/04/03 03:31:22;;;;;;;;;;;;;;;;;;1038943;28;3794;-55
2023/04/03 03:31:52;;;;;;;;;;;;;;;;;;1038474;28;1822;-55
2023/04/03 03:32:22;;;;;;;;;;;;;;;;;;1038964;28;3866;-57
2023/04/03 03:32:53;;;;;;;;;;;;;;;;;;1036849;28;2742;-56
2023/04/03 03:33:23;;;;;;;;;;;;;;;;;;1039104;28;3935;-54
2023/04/03 03:33:54;;;;;;;;;;;;;;;;;;1038732;28;1956;-56
2023/04/03 03:34:24;;;;;;;;;;;;;;;;;;1038470;28;4010;-51
2023/04/03 03:34:54;;;;;;;;;;;;;;;;;;1039207;28;1825;-56
2023/04/03 03:35:25;;;;;;;;;;;;;;;;;;1036880;28;4125;-55